Time;durP1;ratioP1;P1;durP2;ratioP2;P2;SDS_P1;SDS_P2;PMS_P1;PMS_P2;Temp;Humidity;BMP_temperature;BMP_pressure;BME280_temperature;BME280_humidity;BME280_pressure;Samples;Min_cycle;Max_cycle;Signal;HPM_P1;HPM_P2
2023/03/22 00:00:49;;;;;;;39.95;24.88;;;;;;;18.59;75.55;98602.97;4940761;29;20539;-62
2023/03/22 00:03:32;;;;;;;41.45;27.75;;;;;;;18.80;74.61;98605.72;4948512;29;20055;-60
2023/03/22 00:06:21;;;;;;;37.08;26.67;;;;;;;19.00;73.60;98597.13;4936373;29;20044;-61
2023/03/22 00:09:03;;;;;;;36.42;26.00;;;;;;;19.07;73.40;98597.78;4930257;29;20055;-61
2023/03/22 00:11:52;;;;;;;37.63;26.13;;;;;;;19.11;73.11;98596.19;4945422;29;20086;-62
2023/03/22 00:14:35;;;;;;;35.75;26.45;;;;;;;19.19;72.63;98605.69;4930564;29;20110;-61
2023/03/22 00:17:32;;;;;;;39.03;26.35;;;;;;;19.28;72.43;98613.06;4945894;29;20054;-62
2023/03/22 00:20:08;;;;;;;36.40;26.88;;;;;;;19.37;72.13;98616.13;4948625;29;20047;-62
2023/03/22 00:22:59;;;;;;;35.60;26.42;;;;;;;19.41;71.91;98616.41;4948100;29;20051;-61
2023/03/22 00:25:52;;;;;;;39.15;28.25;;;;;;;19.43;71.72;98608.94;4934998;29;20126;-61
2023/03/22 00:28:35;;;;;;;38.10;27.90;;;;;;;19.46;71.38;98614.63;4928685;29;20055;-62
2023/03/22 00:31:24;;;;;;;40.53;28.17;;;;;;;19.46;71.41;98617.31;4937533;29;20051;-62
2023/03/22 00:34:06;;;;;;;37.15;26.77;;;;;;;19.54;71.01;98611.50;4929397;29;20067;-61
2023/03/22 00:36:55;;;;;;;35.15;26.63;;;;;;;19.52;71.00;98618.16;4936466;29;20134;-62
2023/03/22 00:39:37;;;;;;;41.67;28.35;;;;;;;19.52;71.15;98624.34;4904090;29;20130;-60
2023/03/22 00:42:27;;;;;;;35.65;27.08;;;;;;;19.51;71.18;98627.31;4911685;29;20052;-60
2023/03/22 00:45:11;;;;;;;38.75;28.27;;;;;;;19.49;71.23;98624.88;4920766;29;20082;-60
2023/03/22 00:48:01;;;;;;;35.92;26.88;;;;;;;19.46;71.42;98638.00;4936736;29;20043;-60
2023/03/22 00:50:43;;;;;;;38.17;26.98;;;;;;;19.46;71.05;98632.63;4931340;29;20058;-60
2023/03/22 00:53:32;;;;;;;34.42;27.25;;;;;;;19.46;71.23;98636.13;4929711;28;20051;-60
2023/03/22 00:56:15;;;;;;;37.25;26.38;;;;;;;19.40;71.42;98638.97;4928057;29;20123;-60
2023/03/22 00:59:22;;;;;;;39.45;28.60;;;;;;;19.41;71.23;98641.41;4908725;29;20055;-61
2023/03/22 01:01:59;;;;;;;36.28;27.08;;;;;;;19.44;71.38;98646.28;4902646;29;20068;-60
2023/03/22 01:04:55;;;;;;;37.53;27.17;;;;;;;19.44;71.30;98653.53;4906307;29;20056;-62
2023/03/22 01:07:37;;;;;;;41.72;27.90;;;;;;;19.44;71.07;98648.16;4904340;29;20051;-61
2023/03/22 01:10:32;;;;;;;42.30;28.85;;;;;;;19.46;70.94;98646.06;4911431;29;20048;-61
2023/03/22 01:13:09;;;;;;;41.38;27.88;;;;;;;19.43;71.21;98654.59;4928151;29;20104;-60
2023/03/22 01:16:04;;;;;;;40.13;28.40;;;;;;;19.43;71.21;98654.59;4911972;29;20043;-61
2023/03/22 01:18:40;;;;;;;38.70;27.75;;;;;;;19.41;71.30;98654.84;4905865;29;20139;-60
2023/03/22 01:21:29;;;;;;;43.83;29.67;;;;;;;19.42;71.22;98656.47;4910897;29;20058;-61
2023/03/22 01:24:12;;;;;;;41.40;28.50;;;;;;;19.43;71.10;98663.47;4911347;29;20040;-61
2023/03/22 01:27:02;;;;;;;44.90;29.45;;;;;;;19.46;71.23;98662.19;4911531;29;20048;-60
2023/03/22 01:29:45;;;;;;;41.85;29.75;;;;;;;19.46;71.36;98663.00;4928127;29;20052;-61
2023/03/22 01:32:35;;;;;;;39.47;28.77;;;;;;;19.48;71.07;98666.22;4922215;29;20540;-60
2023/03/22 01:35:25;;;;;;;40.95;31.30;;;;;;;19.54;71.06;98675.97;4911363;29;20052;-61
2023/03/22 01:38:07;;;;;;;42.13;30.35;;;;;;;19.64;70.55;98673.41;4928414;29;20503;-60
2023/03/22 01:41:01;;;;;;;40.20;30.58;;;;;;;19.68;70.45;98679.91;4915684;29;20059;-60
2023/03/22 01:44:05;;;;;;;40.17;28.95;;;;;;;19.73;70.16;98684.53;4906169;29;20047;-61
2023/03/22 01:46:57;;;;;;;44.20;30.02;;;;;;;19.73;70.18;98696.09;4926341;29;20063;-61
2023/03/22 01:49:39;;;;;;;42.97;29.08;;;;;;;19.82;70.37;98701.00;4927834;29;20495;-62
2023/03/22 01:52:29;;;;;;;40.58;29.63;;;;;;;19.91;69.97;98713.75;4914872;29;20574;-61
2023/03/22 01:55:26;;;;;;;40.20;28.20;;;;;;;19.95;69.94;98719.44;4910733;29;20058;-60
2023/03/22 01:58:40;;;;;;;35.90;27.25;;;;;;;20.04;69.50;98723.31;4917654;28;20953;-60
2023/03/22 02:01:19;;;;;;;38.95;27.92;;;;;;;20.12;69.37;98720.16;4909777;29;20079;-61
2023/03/22 02:04:18;;;;;;;40.15;28.85;;;;;;;20.19;69.18;98734.19;4929157;29;20499;-61
2023/03/22 02:07:01;;;;;;;44.08;29.60;;;;;;;20.18;68.53;98735.25;4935982;29;20043;-61
2023/03/22 02:10:00;;;;;;;44.53;29.55;;;;;;;20.34;68.80;98737.09;4930063;29;20084;-59
2023/03/22 02:13:05;;;;;;;38.42;29.75;;;;;;;20.50;68.21;98738.84;4945646;29;20051;-61
2023/03/22 02:16:14;;;;;;;39.30;28.30;;;;;;;20.59;67.86;98745.38;4926775;29;20114;-60
2023/03/22 02:19:32;;;;;;;37.75;27.70;;;;;;;20.73;67.76;98747.63;4909999;29;20483;-60
2023/03/22 02:22:29;;;;;;;43.47;27.70;;;;;;;20.79;67.41;98749.31;4930545;29;20050;-60
2023/03/22 02:25:30;;;;;;;38.97;27.23;;;;;;;21.01;67.27;98747.34;4928777;29;20051;-60
2023/03/22 02:28:49;;;;;;;37.45;26.50;;;;;;;21.25;66.58;98745.88;4934854;29;20062;-60
2023/03/22 02:32:06;;;;;;;42.58;26.50;;;;;;;21.32;66.09;98746.50;4929489;29;20051;-60
2023/03/22 02:35:02;;;;;;;36.85;24.23;;;;;;;21.38;65.53;98750.81;4937002;28;20066;-61
2023/03/22 02:38:01;;;;;;;36.45;25.25;;;;;;;21.45;65.27;98740.63;4927141;29;20047;-60
2023/03/22 02:40:54;;;;;;;39.22;25.13;;;;;;;21.51;65.01;98749.53;4911191;29;20095;-60
2023/03/22 02:44:05;;;;;;;38.15;25.05;;;;;;;21.48;64.86;98748.19;4952327;28;20468;-61
2023/03/22 02:47:06;;;;;;;;;;;;;;;21.04;65.92;98747.63;4946101;28;20219;-61
2023/03/22 02:50:07;;;;;;;35.50;24.33;;;;;;;21.48;65.69;98752.75;4945673;29;19930;-61
2023/03/22 02:52:52;;;;;;;35.45;23.95;;;;;;;21.73;65.09;98760.97;4945245;29;20048;-62
2023/03/22 02:55:50;;;;;;;34.00;23.10;;;;;;;21.87;64.62;98754.00;4945871;29;20043;-61
2023/03/22 02:58:45;;;;;;;37.20;23.35;;;;;;;22.12;64.23;98764.13;4946761;28;20058;-60
2023/03/22 03:01:44;;;;;;;32.40;23.73;;;;;;;22.21;63.80;98772.50;4926702;29;20439;-60
2023/03/22 03:04:37;;;;;;;37.03;22.63;;;;;;;22.12;64.11;98771.41;4939019;29;20145;-60
2023/03/22 03:07:23;;;;;;;40.85;23.13;;;;;;;21.75;63.85;98771.50;4942079;28;20067;-61
2023/03/22 03:10:23;;;;;;;38.83;23.63;;;;;;;21.96;64.40;98781.31;4945000;29;20120;-61
2023/03/22 03:12:59;;;;;;;;;;;;;;;22.06;64.00;98780.53;4929662;29;20155;-60
2023/03/22 03:15:56;;;;;;;30.17;21.23;;;;;;;22.23;63.83;98790.03;4947475;28;20601;-61
2023/03/22 03:18:50;;;;;;;32.40;20.95;;;;;;;22.47;63.57;98784.97;4946882;29;20394;-62
2023/03/22 03:21:49;;;;;;;30.48;21.23;;;;;;;22.65;62.46;98787.16;4922675;29;20055;-61
2023/03/22 03:24:44;;;;;;;40.30;22.25;;;;;;;22.58;61.70;98796.59;4928485;29;20054;-60
2023/03/22 03:27:38;;;;;;;31.98;19.95;;;;;;;22.52;61.36;98798.50;4929959;29;20808;-61
2023/03/22 03:30:40;;;;;;;30.15;19.88;;;;;;;22.23;62.05;98798.13;4956185;28;20091;-60
2023/03/22 03:33:34;;;;;;;30.88;20.67;;;;;;;22.26;61.06;98799.50;4952206;28;20071;-62
2023/03/22 03:36:24;;;;;;;32.17;22.60;;;;;;;22.62;62.43;98795.78;4948133;29;20071;-60
2023/03/22 03:39:16;;;;;;;45.55;29.52;;;;;;;22.48;60.20;98793.88;4956315;28;20129;-61
2023/03/22 03:42:02;;;;;;;52.13;35.88;;;;;;;22.94;62.36;98783.94;4931914;29;20051;-61
2023/03/22 03:44:51;;;;;;;51.30;34.42;;;;;;;22.67;60.28;98787.69;4948889;29;20129;-61
2023/03/22 03:47:35;;;;;;;47.85;31.67;;;;;;;22.89;61.33;98789.34;4948713;29;20475;-61
2023/03/22 03:50:25;;;;;;;35.97;24.40;;;;;;;22.99;58.52;98800.16;4948492;29;20070;-62
2023/03/22 03:53:17;;;;;;;32.55;22.35;;;;;;;23.06;60.58;98801.50;4927028;29;20051;-61
2023/03/22 03:55:59;;;;;;;30.60;21.00;;;;;;;23.27;58.56;98803.13;4928879;29;20053;-61
2023/03/22 03:58:57;;;;;;;28.05;19.95;;;;;;;23.19;58.34;98806.34;4946349;28;20040;-61
2023/03/22 04:01:32;;;;;;;27.90;19.20;;;;;;;23.19;57.92;98810.97;4944297;29;20456;-62
2023/03/22 04:04:34;;;;;;;25.23;19.40;;;;;;;23.48;59.35;98812.03;4936147;28;20430;-62
2023/03/22 04:07:10;;;;;;;29.65;19.92;;;;;;;23.18;58.08;98817.47;4943355;29;20047;-61
2023/03/22 04:10:01;;;;;;;34.97;18.83;;;;;;;23.63;58.74;98819.31;4929301;29;21020;-61
2023/03/22 04:12:43;;;;;;;24.83;18.42;;;;;;;23.74;57.19;98818.19;4952830;28;20051;-63
2023/03/22 04:15:39;;;;;;;26.02;17.20;;;;;;;24.08;58.63;98811.03;4957720;28;20121;-62
2023/03/22 04:18:15;;;;;;;25.23;16.30;;;;;;;24.23;57.84;98821.03;4931438;29;20039;-61
2023/03/22 04:21:15;;;;;;;26.17;17.33;;;;;;;24.21;54.87;98822.41;4938289;28;20058;-60
2023/03/22 04:23:57;;;;;;;24.13;17.23;;;;;;;24.37;55.87;98826.63;4939192;29;20428;-62
2023/03/22 04:26:57;;;;;;;22.45;17.30;;;;;;;24.43;57.69;98822.81;4929304;28;20058;-62
2023/03/22 04:29:47;;;;;;;26.08;16.77;;;;;;;24.76;57.20;98832.09;4937598;28;20130;-62
2023/03/22 04:32:56;;;;;;;25.20;17.05;;;;;;;24.43;52.54;98837.16;4928781;28;20049;-61
2023/03/22 04:35:58;;;;;;;25.00;17.00;;;;;;;24.83;54.00;98837.97;4943780;29;20043;-62
2023/03/22 04:38:57;;;;;;;21.85;15.80;;;;;;;25.14;54.88;98833.19;4932626;29;20043;-62
2023/03/22 04:41:41;;;;;;;24.00;14.77;;;;;;;24.93;51.05;98830.63;4945611;28;20563;-62
2023/03/22 04:44:31;;;;;;;20.50;15.05;;;;;;;24.93;52.60;98836.06;4945864;29;20570;-61
2023/03/22 04:47:13;;;;;;;19.80;14.27;;;;;;;24.87;51.46;98842.59;4955119;28;20050;-61
2023/03/22 04:50:03;;;;;;;32.53;16.33;;;;;;;25.00;52.54;98831.09;4944210;28;20077;-61
2023/03/22 04:52:57;;;;;;;20.08;13.23;;;;;;;25.13;51.87;98831.56;4955303;28;20383;-61
2023/03/22 04:55:38;;;;;;;24.77;14.85;;;;;;;25.38;50.41;98839.47;4938152;28;20055;-62
2023/03/22 04:58:34;;;;;;;18.75;14.40;;;;;;;25.08;49.80;98848.69;4923247;28;20056;-62
2023/03/22 05:01:11;;;;;;;17.75;14.10;;;;;;;24.89;51.94;98845.03;4952513;28;20550;-61
2023/03/22 05:04:15;;;;;;;17.70;14.05;;;;;;;25.53;51.44;98846.66;4942237;28;20051;-61
2023/03/22 05:07:04;;;;;;;18.05;12.27;;;;;;;25.48;50.45;98844.81;4913985;29;20122;-61
2023/03/22 05:09:58;;;;;;;17.30;13.35;;;;;;;25.59;49.01;98851.78;4953486;28;20442;-63
2023/03/22 05:12:40;;;;;;;20.63;14.07;;;;;;;25.49;49.02;98846.44;4938384;29;20431;-62
2023/03/22 05:15:40;;;;;;;17.58;13.18;;;;;;;25.72;49.78;98848.38;4915514;29;20058;-62
2023/03/22 05:18:28;;;;;;;18.95;13.40;;;;;;;26.24;49.78;98841.31;4925907;29;20476;-63
2023/03/22 05:21:27;;;;;;;18.48;12.15;;;;;;;26.04;49.41;98842.34;4945992;28;20060;-62
2023/03/22 05:24:03;;;;;;;18.13;12.38;;;;;;;26.11;48.51;98842.78;4936074;29;20126;-61
2023/03/22 05:27:02;;;;;;;16.40;12.70;;;;;;;26.03;51.20;98848.03;4905826;29;20281;-61
2023/03/22 05:29:58;;;;;;;14.50;12.18;;;;;;;25.84;47.34;98840.69;4927557;29;20047;-60
2023/03/22 05:32:49;;;;;;;14.32;10.95;;;;;;;26.17;49.76;98840.81;4923821;29;20050;-62
2023/03/22 05:35:44;;;;;;;14.27;10.75;;;;;;;26.51;48.84;98836.03;4951071;28;20391;-60
2023/03/22 05:38:27;;;;;;;15.95;11.35;;;;;;;26.47;46.81;98839.63;4936589;28;20134;-61
2023/03/22 05:41:16;;;;;;;14.00;11.73;;;;;;;26.29;47.48;98838.50;4934078;29;20769;-60
2023/03/22 05:43:58;;;;;;;13.55;11.73;;;;;;;25.96;47.77;98845.69;4937230;29;20055;-62
2023/03/22 05:46:56;;;;;;;19.65;11.95;;;;;;;26.64;50.06;98850.84;4920086;29;20054;-62
2023/03/22 05:49:42;;;;;;;20.50;11.43;;;;;;;26.76;48.58;98848.47;4934720;29;20066;-61
2023/03/22 05:52:39;;;;;;;19.50;11.18;;;;;;;26.92;47.64;98843.63;4947084;28;20357;-61
2023/03/22 05:55:30;;;;;;;15.43;10.90;;;;;;;26.21;47.99;98844.59;4920898;29;20051;-61
2023/03/22 05:58:29;;;;;;;18.50;11.13;;;;;;;26.30;46.59;98843.66;4953142;28;20044;-60
2023/03/22 06:01:22;;;;;;;12.90;10.20;;;;;;;26.66;47.62;98846.72;4950486;28;20150;-60
2023/03/22 06:04:29;;;;;;;14.20;10.80;;;;;;;26.72;48.78;98848.25;4912542;28;20428;-60
2023/03/22 06:07:19;;;;;;;16.73;10.70;;;;;;;26.94;46.05;98850.41;4930888;29;20055;-60
2023/03/22 06:10:23;;;;;;;12.68;9.70;;;;;;;27.06;48.02;98853.47;4936834;28;20092;-61
2023/03/22 06:13:05;;;;;;;13.57;10.77;;;;;;;26.52;46.76;98853.97;4942929;29;20149;-60
2023/03/22 06:15:54;;;;;;;14.15;10.48;;;;;;;27.08;48.57;98864.06;4913559;29;20063;-62
2023/03/22 06:18:37;;;;;;;24.05;12.85;;;;;;;26.93;47.85;98870.53;4916867;29;20153;-61
2023/03/22 06:21:27;;;;;;;14.32;11.82;;;;;;;26.68;46.70;98868.97;4913672;28;20569;-61
2023/03/22 06:24:09;;;;;;;14.83;10.73;;;;;;;26.96;47.16;98863.69;4917181;28;20254;-62
2023/03/22 06:26:58;;;;;;;16.65;11.07;;;;;;;26.79;48.17;98856.03;4937637;29;20647;-61
2023/03/22 06:29:54;;;;;;;18.25;11.05;;;;;;;27.42;48.76;98863.75;4922180;29;20555;-60
2023/03/22 06:32:33;;;;;;;14.48;11.20;;;;;;;26.75;50.32;98865.88;4916413;29;20044;-61
2023/03/22 06:35:22;;;;;;;17.08;11.63;;;;;;;27.11;48.81;98867.00;4925699;29;20060;-60
2023/03/22 06:38:13;;;;;;;12.52;10.50;;;;;;;27.29;49.30;98869.97;4949987;28;20143;-61
2023/03/22 06:40:55;;;;;;;12.77;10.93;;;;;;;26.59;48.20;98859.88;4918132;29;20060;-62
2023/03/22 06:43:44;;;;;;;11.27;10.07;;;;;;;26.99;47.49;98853.06;4907816;29;20052;-61
2023/03/22 06:46:41;;;;;;;16.23;10.90;;;;;;;26.24;47.75;98857.63;4922630;28;20490;-61
2023/03/22 06:49:53;;;;;;;13.48;10.13;;;;;;;25.85;48.83;98838.75;4923517;28;20057;-61
2023/03/22 06:52:55;;;;;;;17.58;10.98;;;;;;;26.62;50.21;98832.09;4938703;29;20114;-62
2023/03/22 06:55:45;;;;;;;14.70;11.23;;;;;;;26.67;48.54;98823.88;4945049;29;20054;-61
2023/03/22 06:58:30;;;;;;;14.50;11.38;;;;;;;26.03;48.86;98820.91;4951156;28;20045;-61
2023/03/22 07:01:19;;;;;;;14.48;10.88;;;;;;;26.43;50.08;98817.69;4949802;28;20427;-60
2023/03/22 07:04:01;;;;;;;15.05;11.65;;;;;;;26.53;46.79;98809.41;4932792;29;20831;-61
2023/03/22 07:06:53;;;;;;;12.15;10.95;;;;;;;26.77;47.65;98807.44;4930143;29;20051;-61
2023/03/22 07:09:36;;;;;;;16.13;10.82;;;;;;;26.78;46.61;98805.47;4924598;29;20049;-61
2023/03/22 07:12:25;;;;;;;14.77;11.30;;;;;;;26.52;48.38;98787.94;4935518;28;20047;-61
2023/03/22 07:15:13;;;;;;;13.70;10.63;;;;;;;26.83;48.08;98795.34;4937243;28;20119;-60
2023/03/22 07:18:10;;;;;;;13.13;11.70;;;;;;;27.05;49.34;98793.94;4943949;29;20062;-62
2023/03/22 07:20:53;;;;;;;14.27;11.77;;;;;;;27.11;45.03;98774.53;4948832;29;20497;-61
2023/03/22 07:23:45;;;;;;;15.30;11.13;;;;;;;26.95;47.45;98772.38;4951999;28;20063;-60
2023/03/22 07:26:37;;;;;;;13.82;11.77;;;;;;;26.81;45.60;98764.16;4916112;29;20051;-61
2023/03/22 07:29:25;;;;;;;17.20;13.00;;;;;;;27.23;46.45;98763.16;4931887;29;20051;-61
2023/03/22 07:32:15;;;;;;;16.75;13.70;;;;;;;26.40;46.60;98763.97;4946593;28;20047;-61
2023/03/22 07:35:19;;;;;;;13.07;11.75;;;;;;;26.40;49.56;98752.28;4934773;29;20788;-60
2023/03/22 07:38:17;;;;;;;18.65;14.00;;;;;;;26.51;46.78;98749.09;4928336;29;20692;-61
2023/03/22 07:41:10;;;;;;;13.75;12.10;;;;;;;26.15;47.43;98748.81;4931485;29;20055;-61
2023/03/22 07:44:09;;;;;;;15.75;11.60;;;;;;;26.34;49.61;98736.06;4930572;29;20803;-62
2023/03/22 07:47:15;;;;;;;16.30;11.30;;;;;;;26.40;48.76;98738.69;4933836;29;20051;-61
2023/03/22 07:50:38;;;;;;;13.80;11.38;;;;;;;26.63;47.94;98730.47;4942237;28;20558;-61
2023/03/22 07:53:23;;;;;;;17.35;11.52;;;;;;;26.82;48.24;98728.50;4932217;29;20075;-59
2023/03/22 07:56:13;;;;;;;12.13;10.73;;;;;;;26.72;48.53;98725.97;4946352;29;20047;-61
2023/03/22 07:58:55;;;;;;;16.85;11.13;;;;;;;26.41;49.27;98726.75;4946538;28;20043;-62
2023/03/22 08:01:44;;;;;;;13.88;12.45;;;;;;;26.66;48.89;98705.41;4915742;29;20067;-61
2023/03/22 08:04:39;;;;;;;69.82;56.05;;;;;;;26.52;45.79;98704.56;4931360;29;20150;-63
2023/03/22 08:07:43;;;;;;;17.38;14.43;;;;;;;26.82;47.76;98701.31;4912321;29;20056;-60
2023/03/22 08:10:25;;;;;;;16.27;13.55;;;;;;;26.60;47.80;98692.22;4921801;29;20206;-61
2023/03/22 08:13:15;;;;;;;14.07;11.80;;;;;;;26.68;46.13;98695.06;4911922;29;20498;-60
2023/03/22 08:16:05;;;;;;;14.68;12.65;;;;;;;26.41;48.06;98694.16;4911519;29;20577;-61
2023/03/22 08:18:54;;;;;;;16.75;13.52;;;;;;;26.28;46.51;98693.81;4929640;29;20083;-62
2023/03/22 08:21:50;;;;;;;18.88;12.98;;;;;;;26.30;48.86;98682.63;4914341;29;20067;-61
2023/03/22 08:24:44;;;;;;;19.40;14.18;;;;;;;25.98;47.35;98683.34;4933654;29;20788;-62
2023/03/22 08:27:44;;;;;;;17.52;12.57;;;;;;;26.18;48.33;98677.63;4929474;29;20047;-61
2023/03/22 08:30:21;;;;;;;14.90;13.27;;;;;;;26.16;46.21;98670.84;4955526;28;20056;-61
2023/03/22 08:33:10;;;;;;;17.38;13.13;;;;;;;26.50;48.50;98657.88;4954393;28;20610;-62
2023/03/22 08:35:52;;;;;;;15.02;12.82;;;;;;;26.62;50.82;98652.78;4943796;29;20122;-61
2023/03/22 08:38:47;;;;;;;14.95;13.35;;;;;;;26.59;50.06;98638.97;4939580;28;20122;-61
2023/03/22 08:41:56;;;;;;;15.50;12.88;;;;;;;26.25;46.19;98631.09;4921823;29;20111;-61
2023/03/22 08:44:38;;;;;;;15.17;13.67;;;;;;;26.41;49.78;98626.25;4938318;28;20066;-61
2023/03/22 08:47:30;;;;;;;13.90;12.32;;;;;;;26.60;48.73;98616.94;4942224;28;20110;-62
2023/03/22 08:50:16;;;;;;;14.95;13.45;;;;;;;26.68;50.89;98607.31;4944304;28;20166;-61
2023/03/22 08:53:15;;;;;;;14.85;12.85;;;;;;;26.60;47.95;98610.72;4926028;29;20055;-61
2023/03/22 08:56:08;;;;;;;15.63;13.05;;;;;;;26.47;47.50;98595.97;4928045;29;20107;-61
2023/03/22 08:59:17;;;;;;;16.63;12.90;;;;;;;26.31;45.87;98586.47;4932064;29;20088;-61
2023/03/22 09:02:30;;;;;;;15.88;13.20;;;;;;;26.42;48.00;98577.06;4918588;29;20484;-61
2023/03/22 09:05:19;;;;;;;19.55;14.75;;;;;;;26.37;48.18;98579.88;4932213;29;20543;-62
2023/03/22 09:08:03;;;;;;;19.17;15.43;;;;;;;26.37;46.58;98571.72;4932669;28;20048;-60
2023/03/22 09:11:05;;;;;;;16.55;14.65;;;;;;;26.43;49.06;98567.00;4944837;28;20467;-61
2023/03/22 09:13:49;;;;;;;;;;;;;;;26.22;44.85;98556.50;4930382;29;20055;-60
2023/03/22 09:16:38;;;;;;;15.90;13.75;;;;;;;26.31;47.86;98562.84;4913049;29;19950;-63
2023/03/22 09:19:21;;;;;;;15.93;14.32;;;;;;;26.37;48.25;98558.16;4930976;29;20769;-59
2023/03/22 09:22:11;;;;;;;22.58;14.90;;;;;;;26.29;49.96;98542.50;4955422;28;20046;-60
2023/03/22 09:24:56;;;;;;;19.58;14.65;;;;;;;26.26;47.96;98546.66;4947375;29;20051;-59
2023/03/22 09:27:45;;;;;;;20.83;15.27;;;;;;;26.21;50.35;98530.44;4942360;29;20091;-60
2023/03/22 09:30:28;;;;;;;18.40;14.48;;;;;;;26.09;51.41;98524.66;4933563;28;20688;-60
2023/03/22 09:33:19;;;;;;;20.98;15.02;;;;;;;25.92;51.99;98521.69;4934556;28;20153;-60
2023/03/22 09:36:01;;;;;;;14.60;13.10;;;;;;;25.86;47.01;98515.53;4944611;29;20066;-60
2023/03/22 09:38:51;;;;;;;16.25;13.43;;;;;;;25.84;48.50;98508.81;4936473;29;20368;-61
2023/03/22 09:41:41;;;;;;;15.87;11.73;;;;;;;25.81;48.93;98507.47;4936359;28;20078;-62
2023/03/22 09:44:41;;;;;;;18.00;14.05;;;;;;;25.92;48.47;98495.34;4941681;28;20368;-60
2023/03/22 09:47:43;;;;;;;17.23;13.43;;;;;;;26.00;50.41;98493.88;4953918;28;20106;-61
2023/03/22 09:50:37;;;;;;;20.90;14.77;;;;;;;25.92;51.20;98487.22;4945065;28;20535;-61
2023/03/22 09:53:22;;;;;;;17.40;13.57;;;;;;;25.99;47.35;98486.81;4937110;29;20137;-62
2023/03/22 09:56:11;;;;;;;15.27;12.50;;;;;;;25.95;49.07;98480.38;4939058;29;20656;-61
2023/03/22 09:59:38;;;;;;;14.88;13.27;;;;;;;25.91;50.31;98479.34;4941701;29;20066;-61
2023/03/22 10:02:44;;;;;;;19.42;13.80;;;;;;;25.80;49.42;98461.66;4916358;29;20064;-61
2023/03/22 10:05:25;;;;;;;16.90;14.68;;;;;;;25.77;49.96;98463.03;4940216;29;20047;-61
2023/03/22 10:08:23;;;;;;;21.23;15.25;;;;;;;25.83;50.00;98456.44;4942752;29;20062;-60
2023/03/22 10:11:00;;;;;;;18.17;15.77;;;;;;;25.86;47.87;98450.41;4950063;28;20141;-60
2023/03/22 10:14:24;;;;;;;16.95;15.15;;;;;;;25.85;51.98;98446.06;4948019;28;20061;-60
2023/03/22 10:17:04;;;;;;;17.48;15.68;;;;;;;25.86;47.98;98444.16;4954850;28;20047;-59
2023/03/22 10:20:07;;;;;;;18.55;15.60;;;;;;;25.80;46.18;98437.25;4964931;28;20042;-59
2023/03/22 10:23:00;;;;;;;17.30;15.48;;;;;;;25.78;47.96;98437.53;4952268;28;20046;-60
2023/03/22 10:25:43;;;;;;;17.67;15.55;;;;;;;25.79;50.39;98430.19;4959629;28;20607;-61
2023/03/22 10:28:46;;;;;;;16.00;14.27;;;;;;;25.80;49.40;98419.03;4958948;28;20042;-60
2023/03/22 10:31:29;;;;;;;17.38;14.77;;;;;;;25.86;50.09;98417.84;4959087;28;20223;-61
2023/03/22 10:34:33;;;;;;;19.30;14.93;;;;;;;25.83;48.60;98410.31;4943579;28;20051;-62
2023/03/22 10:37:20;;;;;;;21.33;15.48;;;;;;;25.86;47.74;98411.59;4590372;29;10001267;-62
2023/03/22 10:40:12;;;;;;;15.18;12.52;;;;;;;25.77;48.90;98416.91;4939877;29;20047;-62
2023/03/22 10:43:00;;;;;;;17.17;13.07;;;;;;;25.65;50.06;98416.59;4935875;29;20055;-62
2023/03/22 10:45:50;;;;;;;19.05;14.15;;;;;;;25.63;50.18;98407.94;4941781;29;20066;-62
2023/03/22 10:48:36;;;;;;;16.98;13.75;;;;;;;25.62;48.44;98403.63;4935365;29;20047;-62
2023/03/22 10:51:41;;;;;;;16.88;13.20;;;;;;;25.66;50.87;98406.53;4938087;29;20055;-63
2023/03/22 10:54:25;;;;;;;18.40;14.05;;;;;;;25.59;49.29;98406.09;4930478;29;20051;-61
2023/03/22 10:57:14;;;;;;;16.98;15.18;;;;;;;25.53;50.37;98404.56;4935464;29;20066;-59
2023/03/22 10:59:57;;;;;;;19.30;15.05;;;;;;;25.42;48.65;98401.22;4937176;29;20480;-59
2023/03/22 11:03:04;;;;;;;22.38;14.30;;;;;;;25.38;50.08;98406.44;4942563;28;20423;-60
2023/03/22 11:06:01;;;;;;;15.57;13.55;;;;;;;25.32;51.14;98401.38;4946481;28;20130;-60
2023/03/22 11:09:00;;;;;;;19.60;13.95;;;;;;;25.32;51.67;98385.09;4956036;28;20063;-61
2023/03/22 11:11:57;;;;;;;21.50;14.80;;;;;;;25.34;50.14;98391.84;4945330;29;20535;-61
2023/03/22 11:14:51;;;;;;;21.35;14.95;;;;;;;25.31;51.01;98388.94;4948137;28;20051;-60
2023/03/22 11:17:37;;;;;;;34.65;15.13;;;;;;;25.31;50.77;98384.31;4965735;28;20055;-60
2023/03/22 11:20:27;;;;;;;28.00;14.32;;;;;;;25.19;49.83;98381.22;4958466;28;20063;-62
2023/03/22 11:23:16;;;;;;;24.55;13.45;;;;;;;25.17;52.17;98380.75;4939058;29;20142;-62
2023/03/22 11:26:16;;;;;;;19.25;13.30;;;;;;;25.13;51.45;98382.44;4940395;28;20055;-59
2023/03/22 11:29:12;;;;;;;17.70;13.65;;;;;;;25.10;51.69;98376.78;4943698;29;20071;-60
2023/03/22 11:32:06;;;;;;;23.20;12.47;;;;;;;25.07;51.79;98389.03;4937388;29;20052;-60
2023/03/22 11:34:57;;;;;;;20.35;13.48;;;;;;;25.03;52.08;98388.00;4945272;29;20056;-60
2023/03/22 11:38:01;;;;;;;27.60;14.55;;;;;;;25.04;52.56;98384.19;4945337;28;20617;-61
2023/03/22 11:40:52;;;;;;;25.00;13.65;;;;;;;25.02;53.93;98394.50;4943750;28;20047;-61
2023/03/22 11:43:49;;;;;;;20.02;13.15;;;;;;;25.00;56.48;98388.59;4938819;29;20066;-61
2023/03/22 11:46:34;;;;;;;19.35;14.45;;;;;;;24.94;53.89;98389.75;4939914;29;20102;-60
2023/03/22 11:49:25;;;;;;;17.88;14.60;;;;;;;24.89;53.49;98384.41;4946671;29;20058;-61
2023/03/22 11:52:11;;;;;;;21.50;15.68;;;;;;;24.85;51.80;98386.06;4952933;28;20051;-61
2023/03/22 11:55:02;;;;;;;20.05;14.82;;;;;;;24.82;51.57;98381.25;4967735;28;20059;-61
2023/03/22 11:57:44;;;;;;;19.50;14.70;;;;;;;24.84;52.63;98398.00;4955428;28;20055;-61
2023/03/22 12:00:45;;;;;;;23.38;16.13;;;;;;;24.80;53.18;98389.66;4949127;29;20066;-61
2023/03/22 12:03:22;;;;;;;;;;;;;;;24.75;51.46;98402.44;4936874;29;20082;-61
2023/03/22 12:06:30;;;;;;;23.85;15.07;;;;;;;24.74;51.66;98396.22;4921161;29;19937;-61
2023/03/22 12:09:51;;;;;;;24.65;15.93;;;;;;;24.74;51.56;98401.63;4944624;29;20062;-61
2023/03/22 12:12:59;;;;;;;24.90;15.40;;;;;;;24.73;51.58;98397.34;4948222;29;20051;-61
2023/03/22 12:15:39;;;;;;;26.30;15.25;;;;;;;24.75;52.87;98402.44;4928539;29;20416;-62
2023/03/22 12:18:37;;;;;;;22.00;15.77;;;;;;;24.67;52.86;98403.91;4943877;29;20055;-61
2023/03/22 12:21:12;;;;;;;21.92;14.68;;;;;;;24.65;53.65;98400.69;4947618;29;20065;-61
2023/03/22 12:24:09;;;;;;;19.85;14.15;;;;;;;24.61;53.77;98397.75;4941674;29;20131;-61
2023/03/22 12:26:45;;;;;;;19.83;13.85;;;;;;;24.59;53.95;98404.56;4930435;29;20063;-62
2023/03/22 12:29:42;;;;;;;24.58;14.63;;;;;;;24.55;54.39;98406.25;4932349;29;20159;-61
2023/03/22 12:32:25;;;;;;;19.02;13.73;;;;;;;24.53;55.88;98417.34;4929814;29;20058;-62
2023/03/22 12:35:28;;;;;;;19.15;13.50;;;;;;;24.45;57.15;98420.72;4928218;29;20135;-60
2023/03/22 12:38:28;;;;;;;20.92;13.55;;;;;;;24.38;58.13;98419.47;4930967;29;20409;-63
2023/03/22 12:41:30;;;;;;;21.30;13.88;;;;;;;24.29;57.27;98416.59;4910125;29;20135;-61
2023/03/22 12:44:39;;;;;;;28.80;14.55;;;;;;;24.17;56.21;98414.25;4932268;29;20066;-61
2023/03/22 12:47:26;;;;;;;;;;;;;;;24.14;57.96;98414.81;4924088;29;20055;-60
2023/03/22 12:50:24;;;;;;;17.45;14.07;;;;;;;24.05;56.75;98424.66;4928683;29;20402;-59
2023/03/22 12:53:11;;;;;;;19.25;13.60;;;;;;;24.04;55.90;98425.72;4933604;29;20122;-61
2023/03/22 12:56:01;;;;;;;16.90;13.25;;;;;;;23.98;58.90;98426.91;4927623;29;20060;-61
2023/03/22 12:58:47;;;;;;;19.48;13.88;;;;;;;23.93;58.62;98426.94;4934470;28;20479;-60
2023/03/22 13:01:52;;;;;;;18.85;13.02;;;;;;;23.91;59.70;98423.69;4940672;29;20119;-60
2023/03/22 13:04:37;;;;;;;20.15;13.65;;;;;;;23.86;57.30;98433.75;4929530;29;20123;-60
2023/03/22 13:07:57;;;;;;;22.30;13.23;;;;;;;23.82;59.25;98421.91;4928727;29;20135;-61
2023/03/22 13:10:48;;;;;;;16.60;11.38;;;;;;;23.69;58.84;98424.19;4923245;29;20051;-61
2023/03/22 13:13:55;;;;;;;17.48;10.95;;;;;;;23.65;59.37;98427.75;4928987;29;20052;-60